Time;durP1;ratioP1;P1;durP2;ratioP2;P2;SDS_P1;SDS_P2;PMS_P1;PMS_P2;Temp;Humidity;BMP_temperature;BMP_pressure;BME280_temperature;BME280_humidity;BME280_pressure;Samples;Min_cycle;Max_cycle;Signal;HPM_P1;HPM_P2
2022/07/04 00:01:27;;;;;;;2.42;2.22;;;26.80;36.70;;;25.46;37.51;101076.41;12244165;19;20024;-80
2022/07/04 00:05:29;;;;;;;2.20;2.10;;;27.20;36.90;;;25.37;37.37;101076.44;12248602;19;20014;-80
2022/07/04 00:09:30;;;;;;;2.30;2.10;;;26.90;36.80;;;25.32;37.39;101069.94;12241868;19;20021;-80
2022/07/04 00:13:32;;;;;;;1.90;1.80;;;26.90;37.00;;;25.00;37.97;101023.56;12247470;19;20018;-80
2022/07/04 00:17:35;;;;;;;1.98;1.88;;;27.20;37.20;;;25.11;38.27;101062.47;12247843;19;20019;-80
2022/07/04 00:21:36;;;;;;;2.50;1.80;;;26.90;37.30;;;24.99;38.30;101058.50;12244550;19;20015;-80
2022/07/04 00:25:38;;;;;;;1.42;1.35;;;26.80;37.30;;;25.05;38.25;101060.50;12245477;19;20002;-80
2022/07/04 00:29:40;;;;;;;1.70;1.58;;;26.70;37.40;;;25.13;38.00;101084.53;12246651;19;20011;-80
2022/07/04 00:33:41;;;;;;;1.42;1.33;;;26.70;37.50;;;25.17;38.42;101086.72;12245305;19;20014;-80
2022/07/04 00:37:43;;;;;;;1.20;1.20;;;26.80;37.70;;;25.12;38.58;101088.22;12249114;19;20096;-80
2022/07/04 00:41:45;;;;;;;1.65;1.40;;;26.60;37.70;;;25.11;38.72;101098.06;12245134;19;20049;-80
2022/07/04 00:45:47;;;;;;;5.90;1.27;;;26.60;37.70;;;24.89;38.73;101074.72;12246203;19;20463;-80
2022/07/04 00:49:49;;;;;;;1.30;1.20;;;26.60;37.70;;;24.89;38.48;101083.56;12244733;19;20019;-80
2022/07/04 00:53:52;;;;;;;1.40;1.30;;;26.50;37.70;;;24.86;39.13;101096.44;12244729;19;20095;-80
2022/07/04 00:57:54;;;;;;;2.47;1.27;;;26.50;37.80;;;24.89;39.03;101093.41;12245085;19;20010;-80
2022/07/04 01:01:56;;;;;;;1.17;1.17;;;26.40;37.80;;;24.75;39.19;101091.44;12237338;19;20366;-80
2022/07/04 01:05:59;;;;;;;3.30;1.30;;;26.40;37.90;;;24.71;38.94;101098.97;12242287;19;20018;-80
2022/07/04 01:10:03;;;;;;;1.95;1.23;;;26.40;38.10;;;24.68;39.03;101092.13;12238774;19;20078;-80
2022/07/04 01:14:06;;;;;;;1.00;1.00;;;26.30;38.10;;;24.71;38.99;101098.97;12241341;19;20013;-80
2022/07/04 01:18:08;;;;;;;1.15;1.00;;;26.30;38.10;;;24.58;39.33;101082.63;12240248;19;20043;-80
2022/07/04 01:22:10;;;;;;;0.93;0.88;;;26.20;38.10;;;24.58;39.59;101095.97;12223046;19;20041;-80
2022/07/04 01:26:11;;;;;;;1.42;0.93;;;26.20;38.20;;;24.54;39.63;101092.78;12238756;19;20014;-80
2022/07/04 01:30:13;;;;;;;1.05;1.00;;;26.20;38.30;;;24.55;39.72;101086.44;12234064;19;20082;-80
2022/07/04 01:34:14;;;;;;;2.45;1.13;;;26.10;38.30;;;24.50;39.76;101072.75;12239792;19;20015;-80
2022/07/04 01:38:16;;;;;;;1.20;1.20;;;26.10;38.30;;;24.58;39.44;101099.47;12237077;19;20009;-80
2022/07/04 01:42:18;;;;;;;1.00;0.90;;;26.10;38.40;;;24.53;39.53;101103.63;12236294;19;20035;-80
2022/07/04 01:46:19;;;;;;;1.10;1.00;;;26.10;38.50;;;24.40;39.76;101104.94;12237860;19;20460;-80
2022/07/04 01:50:21;;;;;;;0.98;0.98;;;26.10;38.50;;;24.46;39.93;101124.81;12235458;19;20010;-80
2022/07/04 01:54:24;;;;;;;1.08;0.98;;;26.00;38.60;;;24.23;39.90;101104.06;12236195;19;20032;-80
2022/07/04 01:58:26;;;;;;;1.08;1.02;;;25.90;38.80;;;24.16;40.25;101107.56;12238622;19;20007;-80
2022/07/04 02:02:28;;;;;;;0.88;0.88;;;25.90;38.70;;;24.15;40.16;101124.59;12236781;19;20007;-80
2022/07/04 02:06:31;;;;;;;1.10;1.00;;;25.80;38.80;;;23.99;40.17;101123.53;12239020;19;20014;-80
2022/07/04 02:10:33;;;;;;;0.80;0.80;;;25.80;38.90;;;24.02;40.68;101128.53;12238503;19;20015;-80
2022/07/04 02:14:35;;;;;;;1.27;1.17;;;25.70;39.00;;;24.00;40.70;101151.88;12239078;19;20021;-80
2022/07/04 02:18:37;;;;;;;0.80;0.80;;;25.90;39.30;;;23.94;40.93;101152.53;12238134;19;20014;-80
2022/07/04 02:22:38;;;;;;;0.73;0.73;;;25.60;39.20;;;23.88;40.79;101168.38;12234228;19;20027;-80
2022/07/04 02:26:40;;;;;;;2.45;1.00;;;25.60;39.30;;;23.84;40.71;101176.69;12241115;19;20010;-80
2022/07/04 02:30:42;;;;;;;1.05;0.90;;;25.50;39.50;;;23.80;41.12;101178.00;12236079;19;20014;-80
2022/07/04 02:34:44;;;;;;;0.95;0.90;;;25.40;39.50;;;23.52;41.39;101147.16;12240333;19;20382;-80
2022/07/04 02:38:46;;;;;;;0.88;0.88;;;25.40;39.70;;;23.56;41.33;101162.69;12237443;19;20098;-80
2022/07/04 02:42:47;;;;;;;0.90;0.90;;;25.30;39.70;;;23.26;41.62;101136.53;12238150;19;20033;-80
2022/07/04 02:46:49;;;;;;;1.55;1.45;;;25.30;40.00;;;23.44;41.62;101187.09;12236793;19;20019;-80
2022/07/04 02:50:51;;;;;;;1.65;1.00;;;25.20;40.10;;;23.42;41.58;101206.75;12233615;19;20018;-80
2022/07/04 02:54:53;;;;;;;1.77;1.00;;;25.10;40.20;;;23.27;41.83;101195.00;12236451;19;20136;-80
2022/07/04 02:58:55;;;;;;;0.93;0.93;;;25.00;40.20;;;23.30;42.10;101212.50;12237441;19;20006;-80
2022/07/04 03:02:56;;;;;;;1.17;1.08;;;25.00;40.50;;;23.20;42.24;101204.63;12232271;19;20434;-80
2022/07/04 03:06:58;;;;;;;1.35;1.10;;;25.00;40.60;;;23.02;42.26;101188.66;12235968;19;20377;-80
2022/07/04 03:11:01;;;;;;;1.05;0.95;;;24.90;40.80;;;23.05;42.75;101214.97;12234957;19;20085;-80
2022/07/04 03:15:03;;;;;;;1.40;1.30;;;24.90;41.10;;;22.73;42.54;101172.88;12244083;19;20017;-79
2022/07/04 03:19:05;;;;;;;1.05;1.05;;;24.80;41.20;;;22.86;42.72;101197.31;12247406;19;20090;-78
2022/07/04 03:23:07;;;;;;;2.00;1.40;;;24.80;41.50;;;22.96;42.82;101226.56;12244010;19;20014;-79
2022/07/04 03:27:09;;;;;;;1.60;1.10;;;24.70;41.70;;;22.87;42.86;101212.31;12249535;19;20017;-78
2022/07/04 03:31:10;;;;;;;3.97;1.33;;;24.60;41.80;;;22.86;43.26;101221.28;12243727;19;20015;-79
2022/07/04 03:35:12;;;;;;;1.35;1.25;;;24.50;41.90;;;22.82;43.34;101209.28;12251317;19;20487;-78
2022/07/04 03:39:14;;;;;;;1.13;1.00;;;24.50;42.10;;;22.87;43.24;101225.63;12246480;19;20010;-79
2022/07/04 03:43:15;;;;;;;1.35;1.25;;;24.50;42.30;;;22.56;43.57;101184.38;12247240;19;20082;-79
2022/07/04 03:47:17;;;;;;;1.30;1.20;;;24.40;42.50;;;22.71;43.63;101233.44;12250987;19;20014;-78
2022/07/04 03:51:19;;;;;;;2.40;1.40;;;24.40;42.60;;;22.67;43.80;101237.41;12243493;19;20019;-78
2022/07/04 03:55:21;;;;;;;1.52;1.42;;;24.40;42.70;;;22.66;44.26;101262.38;12248206;19;20014;-79
2022/07/04 03:59:22;;;;;;;1.52;1.42;;;24.30;42.90;;;22.66;44.12;101263.19;12247150;19;20501;-79
2022/07/04 04:07:44;;;;;;;1.58;1.48;;;24.30;43.30;;;22.61;44.29;101270.81;12247839;19;20015;-78
2022/07/04 04:11:46;;;;;;;1.75;1.65;;;24.20;43.40;;;22.60;44.47;101268.28;12246004;19;20018;-79
2022/07/04 04:15:48;;;;;;;2.03;1.83;;;24.30;43.60;;;22.31;44.64;101242.69;12246863;19;20007;-78
2022/07/04 04:19:49;;;;;;;1.77;1.60;;;24.20;43.70;;;22.49;44.94;101285.28;12247216;19;20011;-78
2022/07/04 04:23:51;;;;;;;2.15;1.73;;;24.20;43.80;;;22.37;44.92;101284.66;12244083;19;20011;-79
2022/07/04 04:27:53;;;;;;;2.53;1.95;;;24.10;44.10;;;22.47;45.40;101311.25;12244793;19;20120;-79
2022/07/04 04:31:54;;;;;;;2.15;2.00;;;24.40;44.50;;;22.32;45.52;101286.94;12241711;19;20074;-79
2022/07/04 04:35:56;;;;;;;2.55;2.22;;;24.00;44.40;;;22.38;45.78;101304.97;12245836;19;20376;-79
2022/07/04 04:39:58;;;;;;;2.30;2.00;;;24.00;44.50;;;22.42;45.40;101303.69;12245109;19;20018;-79
2022/07/04 04:44:00;;;;;;;2.30;2.10;;;24.20;44.80;;;22.38;45.90;101299.63;12244093;19;20387;-78
2022/07/04 04:48:02;;;;;;;2.70;2.17;;;24.10;44.80;;;22.17;45.68;101267.06;12245935;19;20013;-79
2022/07/04 04:52:05;;;;;;;2.65;2.45;;;24.00;44.80;;;22.24;45.89;101281.50;12240722;19;20365;-79
2022/07/04 04:56:07;;;;;;;3.35;2.20;;;24.00;45.20;;;22.30;46.23;101291.56;12246246;19;20405;-78
2022/07/04 05:00:09;;;;;;;2.40;2.20;;;23.90;45.00;;;22.29;46.19;101303.19;12241257;19;20102;-79
2022/07/04 05:04:14;;;;;;;2.60;2.40;;;23.90;45.20;;;22.26;45.94;101301.66;12247364;19;20014;-79
2022/07/04 05:08:16;;;;;;;2.78;2.30;;;23.90;45.30;;;22.31;46.32;101311.88;12242284;19;20479;-79
2022/07/04 05:12:17;;;;;;;2.72;2.20;;;23.90;45.30;;;22.35;46.17;101315.91;12242453;19;20014;-79
2022/07/04 05:16:19;;;;;;;3.25;2.88;;;24.00;45.40;;;22.35;46.34;101323.88;12243971;19;20010;-79
2022/07/04 05:20:21;;;;;;;2.05;1.95;;;24.00;45.50;;;22.41;46.84;101322.44;12242458;19;20011;-79
2022/07/04 05:24:23;;;;;;;2.80;2.05;;;24.00;45.60;;;22.43;46.73;101325.81;12245617;19;20031;-79
2022/07/04 05:28:25;;;;;;;2.17;1.98;;;24.10;45.60;;;22.49;46.84;101320.75;12241416;19;20452;-79
2022/07/04 05:32:27;;;;;;;2.20;1.92;;;24.10;45.80;;;22.54;46.58;101312.31;12239883;19;20018;-79
2022/07/04 05:36:29;;;;;;;3.97;2.10;;;24.20;45.90;;;22.54;46.74;101301.66;12238636;19;20070;-79
2022/07/04 05:40:31;;;;;;;2.65;1.95;;;24.20;46.00;;;22.77;47.11;101333.22;12242917;19;20010;-79
2022/07/04 05:44:33;;;;;;;2.60;2.40;;;24.20;46.00;;;22.73;46.74;101308.69;12242848;19;20041;-79
2022/07/04 05:48:34;;;;;;;1.98;1.88;;;24.30;46.20;;;23.02;47.23;101343.16;12243532;19;20087;-79
2022/07/04 05:52:36;;;;;;;2.20;2.08;;;24.40;46.20;;;23.12;47.14;101322.63;12228915;19;20018;-78
2022/07/04 05:56:39;;;;;;;2.67;2.00;;;24.50;46.10;;;23.26;47.07;101329.25;12237354;19;20018;-79
2022/07/04 06:00:41;;;;;;;2.50;2.15;;;24.70;46.10;;;23.40;46.82;101334.03;12218960;19;20500;-78
2022/07/04 06:04:43;;;;;;;4.45;2.15;;;24.80;46.00;;;23.56;46.75;101336.00;12224766;19;20392;-78
2022/07/04 06:08:45;;;;;;;3.75;2.05;;;24.90;45.90;;;23.76;47.00;101346.50;12225783;19;20078;-78
2022/07/04 06:12:46;;;;;;;2.65;2.00;;;25.10;46.00;;;23.66;46.86;101322.56;12223436;19;20014;-78
2022/07/04 06:16:48;;;;;;;3.25;2.50;;;25.20;45.70;;;23.95;46.81;101358.81;12239587;19;20104;-78
2022/07/04 06:20:50;;;;;;;2.92;2.35;;;25.30;45.50;;;24.02;47.00;101358.03;12234667;19;20018;-79
2022/07/04 06:24:52;;;;;;;3.15;2.10;;;25.50;45.50;;;24.00;46.47;101365.34;12241624;19;20445;-79
2022/07/04 06:28:54;;;;;;;3.55;1.80;;;25.60;45.40;;;24.05;46.48;101364.88;12233850;19;20018;-79
2022/07/04 06:32:57;;;;;;;2.20;2.00;;;25.60;45.20;;;24.07;46.46;101366.41;12230923;19;20014;-79
2022/07/04 06:36:59;;;;;;;2.20;1.92;;;25.70;45.10;;;24.03;46.46;101358.84;12233684;19;20011;-79
2022/07/04 06:41:00;;;;;;;2.28;1.80;;;26.00;45.30;;;24.15;46.45;101383.47;12234238;19;20014;-79
2022/07/04 06:45:02;;;;;;;4.95;1.90;;;25.70;45.10;;;24.04;46.49;101365.88;12235812;19;20035;-79
2022/07/04 06:49:04;;;;;;;2.60;1.80;;;25.80;45.00;;;24.23;46.52;101395.03;12236054;19;20035;-79
2022/07/04 06:53:08;;;;;;;1.77;1.67;;;25.80;44.70;;;24.33;46.81;101386.03;12231962;19;20486;-79
2022/07/04 06:57:13;;;;;;;1.52;1.30;;;25.90;44.70;;;24.38;46.40;101400.59;12232629;19;20690;-79
2022/07/04 07:01:16;;;;;;;1.50;1.40;;;25.90;44.50;;;23.99;46.48;101330.81;12231999;19;20040;-79
2022/07/04 07:05:17;;;;;;;1.55;1.30;;;25.90;44.50;;;24.44;46.25;101393.84;12235239;19;20082;-79
2022/07/04 07:09:19;;;;;;;1.80;1.33;;;26.00;44.30;;;24.47;46.07;101398.84;12238767;19;20015;-79
2022/07/04 07:13:21;;;;;;;1.58;1.40;;;26.00;44.00;;;24.61;45.84;101422.28;12237141;19;20018;-79
2022/07/04 07:17:23;;;;;;;1.23;1.23;;;26.10;43.60;;;24.56;45.92;101410.41;12239545;19;20024;-78
2022/07/04 07:21:25;;;;;;;1.42;1.23;;;26.40;43.50;;;24.57;45.43;101396.88;12234980;19;20014;-79
2022/07/04 07:25:27;;;;;;;1.73;1.15;;;26.20;43.60;;;24.62;45.38;101393.75;12238728;19;20010;-79
2022/07/04 07:29:28;;;;;;;0.80;0.80;;;26.20;43.20;;;24.88;45.36;101418.56;12233989;19;20333;-79
2022/07/04 07:33:30;;;;;;;1.08;0.70;;;26.30;43.20;;;24.93;45.27;101396.72;12225331;19;20017;-79
2022/07/04 07:37:32;;;;;;;0.68;0.65;;;26.40;42.40;;;25.15;44.51;101416.69;12233097;19;20021;-79
2022/07/04 07:41:34;;;;;;;0.85;0.70;;;26.50;41.60;;;25.21;44.48;101412.50;12231536;19;20019;-80
2022/07/04 07:45:35;;;;;;;0.65;0.50;;;26.60;41.60;;;25.27;44.40;101417.19;12236927;19;20018;-80
2022/07/04 07:49:37;;;;;;;0.65;0.57;;;26.70;41.20;;;25.45;43.83;101435.78;12231862;19;20015;-78
2022/07/04 07:53:38;;;;;;;5.88;0.90;;;26.90;40.80;;;25.39;43.86;101413.22;12235208;19;20016;-78
2022/07/04 07:57:40;;;;;;;0.73;0.73;;;26.90;40.90;;;25.51;43.35;101419.91;12235301;19;20034;-78
2022/07/04 08:01:42;;;;;;;1.65;0.60;;;27.10;40.70;;;25.57;43.77;101419.25;12240632;19;20029;-77
2022/07/04 08:05:44;;;;;;;0.88;0.60;;;27.10;40.60;;;25.76;43.12;101439.50;12248699;19;20010;-79
2022/07/04 08:09:45;;;;;;;0.77;0.50;;;27.40;40.40;;;25.83;43.26;101450.38;12225194;19;20015;-79
2022/07/04 08:13:47;;;;;;;1.35;0.50;;;27.30;40.20;;;25.88;42.87;101445.38;12232206;19;20018;-77
2022/07/04 08:17:49;;;;;;;1.35;0.50;;;27.30;40.00;;;25.94;43.02;101436.66;12235152;19;20606;-77
2022/07/04 08:21:53;;;;;;;2.40;0.50;;;27.40;40.00;;;25.96;42.81;101418.59;12224296;19;20405;-77
2022/07/04 08:25:54;;;;;;;0.60;0.60;;;27.50;40.10;;;26.19;42.51;101424.13;12230321;19;20460;-76
2022/07/04 08:29:56;;;;;;;1.05;0.57;;;27.60;40.00;;;26.20;42.72;101419.59;12225807;19;20010;-77
2022/07/04 08:33:58;;;;;;;0.60;0.60;;;27.60;39.70;;;26.32;42.03;101450.34;12234438;19;20019;-78
2022/07/04 08:38:00;;;;;;;0.85;0.60;;;27.70;39.40;;;26.19;42.21;101448.22;12232110;19;20014;-78
2022/07/04 08:42:09;;;;;;;0.50;0.50;;;27.70;39.00;;;26.06;42.03;101439.84;12227645;19;20018;-78
2022/07/04 08:46:10;;;;;;;1.77;0.80;;;27.70;38.80;;;26.05;41.91;101449.72;12232366;19;20015;-78
2022/07/04 08:50:25;;;;;;;0.90;0.55;;;27.80;38.60;;;26.08;41.74;101469.13;12229175;19;20014;-78
2022/07/04 08:58:55;;;;;;;1.10;0.50;;;27.60;38.50;;;25.64;41.58;101408.72;12230737;19;20055;-78
2022/07/04 09:03:00;;;;;;;1.05;0.60;;;27.60;38.30;;;25.89;41.26;101444.38;12225747;19;20912;-77
2022/07/04 09:07:02;;;;;;;1.45;0.50;;;27.60;38.30;;;25.75;41.14;101407.53;12230180;19;20022;-78
2022/07/04 09:11:04;;;;;;;1.42;0.60;;;27.60;38.30;;;25.99;41.37;101434.31;12228040;19;20018;-77
2022/07/04 09:15:07;;;;;;;0.77;0.50;;;27.60;38.40;;;26.10;41.37;101456.41;12230784;19;20030;-78
2022/07/04 09:19:19;;;;;;;0.40;0.40;;;27.60;38.00;;;26.33;41.00;101476.13;12229834;19;20025;-79
2022/07/04 09:23:31;;;;;;;0.57;0.57;;;27.70;38.00;;;26.35;40.66;101465.25;12224424;19;20110;-79
2022/07/04 09:27:39;;;;;;;0.68;0.60;;;27.80;37.60;;;26.45;40.08;101480.13;12231314;19;20048;-78
2022/07/04 09:31:41;;;;;;;0.75;0.60;;;28.00;37.30;;;26.43;40.05;101468.72;12226024;19;20037;-77
2022/07/04 09:35:42;;;;;;;1.98;0.45;;;27.90;37.20;;;26.60;40.06;101480.31;12230712;19;20018;-78
2022/07/04 09:39:45;;;;;;;0.63;0.52;;;28.00;37.30;;;26.78;39.97;101468.50;12226231;19;20089;-78
2022/07/04 09:44:05;;;;;;;0.40;0.40;;;28.10;36.90;;;26.76;39.34;101447.25;12226284;19;20028;-78
2022/07/04 09:48:07;;;;;;;4.72;0.80;;;28.20;36.60;;;26.86;39.33;101457.75;12222083;19;20022;-78
2022/07/04 09:52:09;;;;;;;1.17;0.68;;;28.30;36.70;;;26.96;39.56;101468.28;12224320;19;20098;-78
2022/07/04 09:56:11;;;;;;;0.80;0.60;;;28.40;37.00;;;27.05;39.70;101464.53;12225150;19;20014;-77
2022/07/04 10:00:24;;;;;;;0.50;0.40;;;28.50;36.70;;;27.17;38.84;101452.47;12223230;19;20407;-77
2022/07/04 10:04:48;;;;;;;0.60;0.60;;;28.50;36.60;;;27.21;38.99;101445.72;12228322;19;20356;-80
2022/07/04 10:08:50;;;;;;;2.03;1.05;;;28.60;36.80;;;27.25;39.21;101432.81;12228045;19;20035;-80
2022/07/04 10:12:55;;;;;;;0.60;0.60;;;28.90;36.90;;;27.50;38.99;101446.88;12224624;19;20022;-78
2022/07/04 10:16:56;;;;;;;0.90;0.60;;;28.80;36.40;;;27.67;38.87;101466.38;12226562;19;20029;-79
2022/07/04 10:20:58;;;;;;;0.70;0.50;;;29.00;36.20;;;27.72;38.57;101456.78;12223972;19;20035;-78
2022/07/04 10:24:59;;;;;;;0.80;0.50;;;29.20;36.10;;;27.82;38.00;101450.38;12224358;19;20010;-78
2022/07/04 10:29:01;;;;;;;0.50;0.50;;;29.20;35.90;;;27.74;38.52;101419.03;12223473;19;20015;-77
2022/07/04 10:33:07;;;;;;;1.52;0.60;;;29.30;36.00;;;28.06;37.85;101439.41;12224413;19;20019;-78
2022/07/04 10:37:09;;;;;;;1.33;0.60;;;29.40;35.80;;;28.22;38.05;101450.00;12226969;19;20014;-77
2022/07/04 10:41:10;;;;;;;0.98;0.40;;;29.50;35.80;;;28.28;38.21;101447.59;12220693;19;20022;-79
2022/07/04 10:45:31;;;;;;;0.50;0.50;;;29.60;35.60;;;28.37;37.30;101452.69;12224918;19;20019;-77
2022/07/04 10:49:34;;;;;;;0.75;0.70;;;29.70;35.40;;;28.23;37.53;101429.34;12223828;19;20021;-78
2022/07/04 10:54:03;;;;;;;0.73;0.45;;;29.80;35.50;;;28.42;37.51;101446.78;12226133;19;20018;-78
2022/07/04 10:58:05;;;;;;;0.57;0.57;;;29.80;35.70;;;28.64;37.47;101453.09;12225355;19;20027;-78
2022/07/04 11:02:06;;;;;;;0.55;0.50;;;29.70;35.30;;;28.73;37.13;101446.59;12220575;19;20090;-78
2022/07/04 11:06:42;;;;;;;0.80;0.43;;;30.10;35.30;;;28.78;36.92;101438.81;12223011;19;20043;-80
2022/07/04 11:11:05;;;;;;;1.35;0.55;;;30.10;35.20;;;28.66;36.93;101426.88;12224642;19;20533;-78
2022/07/04 11:15:06;;;;;;;0.88;0.43;;;30.20;34.90;;;28.58;36.83;101435.88;12224124;19;20074;-78
2022/07/04 11:19:08;;;;;;;0.75;0.47;;;30.30;34.80;;;28.53;36.79;101435.59;12223949;19;20575;-78
2022/07/04 11:23:16;;;;;;;1.08;0.65;;;30.10;34.80;;;28.33;36.64;101423.72;12221000;19;20432;-78
2022/07/04 11:27:20;;;;;;;1.58;0.50;;;30.10;34.70;;;28.33;36.72;101432.59;12225628;19;20018;-78
2022/07/04 11:31:34;;;;;;;1.17;0.68;;;30.00;34.80;;;28.26;36.60;101428.97;12219727;19;20029;-78
2022/07/04 11:35:35;;;;;;;1.20;0.50;;;29.90;34.50;;;28.01;36.12;101378.19;12227273;19;20021;-78
2022/07/04 11:39:37;;;;;;;0.77;0.50;;;29.80;34.50;;;28.27;36.31;101424.41;12233763;19;20039;-78
2022/07/04 11:48:02;;;;;;;0.68;0.68;;;29.80;34.30;;;28.40;36.20;101424.63;12235520;19;20022;-78
2022/07/04 11:52:04;;;;;;;1.08;0.57;;;29.80;34.40;;;28.45;36.22;101422.25;12227701;19;20018;-77
2022/07/04 11:56:05;;;;;;;0.57;0.57;;;29.80;34.50;;;28.56;36.10;101418.25;12232016;19;20129;-78
2022/07/04 12:00:16;;;;;;;0.73;0.50;;;29.90;34.50;;;28.62;36.02;101417.50;12229615;19;20035;-77
2022/07/04 12:04:20;;;;;;;0.70;0.60;;;30.00;34.10;;;28.21;35.92;101359.66;12227565;19;20079;-77
2022/07/04 12:08:21;;;;;;;0.75;0.63;;;30.00;34.30;;;28.49;35.85;101407.44;12228282;19;20011;-77
2022/07/04 12:12:23;;;;;;;0.80;0.50;;;30.00;34.10;;;28.46;35.65;101429.28;12222027;19;20014;-77
2022/07/04 12:16:25;;;;;;;2.97;0.70;;;30.00;34.30;;;28.28;35.87;101408.13;12229760;19;20017;-77
2022/07/04 12:20:27;;;;;;;1.58;0.60;;;29.90;34.10;;;28.28;35.86;101410.00;12221651;19;20051;-77
2022/07/04 12:24:43;;;;;;;1.05;0.63;;;29.80;34.10;;;28.22;35.63;101401.66;12228271;19;20011;-77
2022/07/04 12:28:45;;;;;;;1.05;0.80;;;29.80;34.10;;;28.12;35.77;101394.88;12226138;19;20508;-77
2022/07/04 12:32:51;;;;;;;0.82;0.80;;;29.70;34.10;;;28.15;35.96;101416.81;12224217;19;20011;-77
2022/07/04 12:36:56;;;;;;;0.50;0.50;;;29.70;34.10;;;28.11;35.51;101410.16;12229750;19;20085;-78
2022/07/04 12:41:12;;;;;;;0.50;0.50;;;29.60;34.00;;;28.16;35.56;101397.00;12224277;19;20022;-77
2022/07/04 12:45:14;;;;;;;0.90;0.50;;;29.60;34.20;;;28.30;35.41;101392.66;12224815;19;20029;-77
2022/07/04 12:49:17;;;;;;;0.80;0.52;;;29.60;34.00;;;28.17;35.24;101353.03;12225892;19;20011;-79
2022/07/04 12:53:20;;;;;;;1.35;0.85;;;29.70;34.20;;;28.44;35.27;101377.59;12224353;19;20014;-78
2022/07/04 12:57:22;;;;;;;1.30;0.60;;;30.00;34.10;;;28.55;34.99;101378.97;12227919;19;20042;-78
2022/07/04 13:01:24;;;;;;;1.15;0.70;;;29.90;34.10;;;28.57;34.99;101382.28;12220428;19;20014;-80
2022/07/04 13:05:26;;;;;;;0.70;0.60;;;30.00;34.00;;;28.19;35.32;101310.69;12226233;19;20021;-79
2022/07/04 13:09:28;;;;;;;2.03;0.90;;;30.00;34.30;;;28.56;34.76;101357.28;12225424;19;20023;-79
2022/07/04 13:13:30;;;;;;;0.93;0.68;;;30.10;33.70;;;28.58;34.64;101359.78;12224074;19;20053;-81
2022/07/04 13:17:31;;;;;;;0.93;0.68;;;30.20;33.60;;;28.66;34.83;101373.94;12226059;19;20017;-79
2022/07/04 13:21:33;;;;;;;1.15;0.60;;;30.10;33.50;;;28.82;35.01;101380.13;12223054;19;20036;-78
2022/07/04 13:25:34;;;;;;;0.90;0.65;;;30.10;33.70;;;28.77;34.54;101361.88;12226638;19;20018;-80
2022/07/04 13:29:36;;;;;;;0.40;0.40;;;30.20;33.40;;;28.95;34.32;101374.06;12222178;19;20010;-78
2022/07/04 13:33:38;;;;;;;0.90;0.55;;;30.30;33.20;;;28.93;33.93;101363.50;12226879;19;20452;-78
2022/07/04 13:37:40;;;;;;;0.63;0.60;;;30.40;33.20;;;29.05;34.19;101362.00;12224822;19;20009;-78
2022/07/04 13:41:42;;;;;;;0.50;0.50;;;30.40;33.00;;;29.06;34.03;101354.78;12221349;19;20039;-78
2022/07/04 13:45:48;;;;;;;1.92;0.50;;;30.50;32.90;;;29.11;33.75;101355.88;12223262;19;20014;-78
2022/07/04 13:49:50;;;;;;;0.50;0.50;;;30.60;32.60;;;29.28;33.55;101379.84;12224098;19;20044;-77
2022/07/04 13:53:52;;;;;;;0.43;0.43;;;30.60;32.60;;;29.14;33.30;101333.13;12227952;19;20018;-79
2022/07/04 13:57:53;;;;;;;0.57;0.40;;;30.70;32.50;;;29.28;33.48;101355.63;12221684;19;20018;-77
2022/07/04 14:01:55;;;;;;;0.38;0.30;;;30.70;32.50;;;29.38;33.17;101361.50;12222108;19;20427;-78
2022/07/04 14:05:57;;;;;;;4.60;0.60;;;30.80;32.30;;;29.26;33.25;101349.59;12221194;19;20038;-78
2022/07/04 14:09:59;;;;;;;7.40;0.50;;;30.80;32.20;;;29.19;33.43;101337.91;12217576;19;20015;-77
2022/07/04 14:14:00;;;;;;;0.60;0.50;;;30.80;32.30;;;29.34;33.06;101355.66;12223626;19;20105;-77
2022/07/04 14:18:07;;;;;;;0.95;0.57;;;30.80;32.00;;;29.40;32.86;101364.81;12221679;19;20086;-77
2022/07/04 14:22:09;;;;;;;0.93;0.50;;;31.00;32.20;;;29.36;32.91;101365.41;12220091;19;20022;-77
2022/07/04 14:26:16;;;;;;;0.65;0.60;;;30.90;31.90;;;29.26;32.50;101346.91;12222030;19;20106;-78
2022/07/04 14:30:17;;;;;;;2.28;0.50;;;30.80;31.60;;;29.27;32.60;101345.84;12218239;19;20118;-78
2022/07/04 14:34:19;;;;;;;4.78;0.57;;;30.80;31.70;;;29.24;32.27;101367.78;12222274;19;20035;-78
2022/07/04 14:38:21;;;;;;;2.40;0.57;;;30.70;31.70;;;28.94;32.43;101346.34;12218028;19;20039;-78
2022/07/04 14:42:23;;;;;;;2.50;0.75;;;30.70;31.30;;;28.89;32.30;101363.06;12218128;19;20385;-78
2022/07/04 14:46:24;;;;;;;0.30;0.30;;;30.60;31.40;;;28.87;32.33;101359.72;12218662;19;20019;-77
2022/07/04 14:50:26;;;;;;;0.82;0.70;;;30.50;31.40;;;28.87;32.39;101358.88;12221129;19;20022;-77
2022/07/04 14:54:28;;;;;;;0.65;0.50;;;30.40;31.50;;;28.97;32.59;101356.69;12220803;19;20026;-77
2022/07/04 14:58:29;;;;;;;0.57;0.43;;;30.40;31.50;;;29.09;32.26;101357.09;12219446;19;20033;-77
2022/07/04 15:02:31;;;;;;;0.50;0.50;;;30.40;31.50;;;29.16;32.17;101351.75;12216943;19;20022;-76
2022/07/04 15:06:33;;;;;;;0.80;0.40;;;30.40;31.60;;;29.13;31.92;101325.25;12219594;19;20011;-76
2022/07/04 15:10:34;;;;;;;0.65;0.40;;;30.50;31.30;;;29.32;32.10;101349.63;12226177;19;20047;-77
2022/07/04 15:14:36;;;;;;;1.33;0.52;;;30.60;31.20;;;29.36;31.53;101352.78;12232132;19;20042;-78
2022/07/04 15:18:38;;;;;;;0.70;0.60;;;30.70;31.10;;;29.15;31.35;101334.78;12234166;19;20026;-77
2022/07/04 15:27:00;;;;;;;0.80;0.50;;;30.60;31.00;;;28.82;31.64;101304.84;12231304;19;20646;-78
2022/07/04 15:31:03;;;;;;;2.25;0.50;;;30.50;31.10;;;28.95;31.53;101323.81;12224649;19;20021;-78
2022/07/04 15:35:05;;;;;;;0.50;0.50;;;30.50;30.90;;;28.94;31.37;101307.84;12221654;19;20015;-77
2022/07/04 15:39:10;;;;;;;0.50;0.50;;;30.50;30.60;;;29.10;31.08;101329.97;12227730;19;20021;-77
2022/07/04 15:43:11;;;;;;;0.73;0.50;;;30.40;30.80;;;29.06;31.08;101335.94;12226201;19;20074;-78
2022/07/04 15:47:13;;;;;;;0.80;0.57;;;30.40;30.70;;;28.93;31.03;101312.41;12229952;19;20094;-78
2022/07/04 15:51:15;;;;;;;0.50;0.50;;;30.40;30.60;;;29.08;30.66;101331.19;12225927;19;20015;-77
2022/07/04 15:55:16;;;;;;;0.90;0.65;;;30.40;30.40;;;28.97;31.04;101312.84;12229086;19;20014;-78
2022/07/04 15:59:18;;;;;;;0.30;0.30;;;30.40;30.60;;;29.08;30.74;101334.75;12229927;19;20026;-77
2022/07/04 16:03:19;;;;;;;0.40;0.40;;;30.40;30.40;;;28.99;30.80;101330.47;12231024;19;20098;-77
2022/07/04 16:07:21;;;;;;;0.40;0.40;;;30.40;30.70;;;28.83;30.77;101304.66;12221227;19;20018;-77
2022/07/04 16:11:23;;;;;;;0.60;0.60;;;30.40;30.50;;;28.62;30.81;101270.50;12230290;19;20031;-77
2022/07/04 16:15:24;;;;;;;0.55;0.55;;;30.30;30.60;;;28.98;30.54;101325.28;12232178;19;20019;-77
2022/07/04 16:19:26;;;;;;;0.63;0.50;;;30.30;30.50;;;28.93;30.69;101311.59;12229048;19;20034;-77
2022/07/04 16:23:27;;;;;;;0.50;0.50;;;30.30;30.60;;;28.98;30.76;101309.97;12227357;19;20022;-77
2022/07/04 16:27:29;;;;;;;0.60;0.60;;;30.50;30.70;;;29.02;30.75;101305.88;12232662;19;20129;-77
2022/07/04 16:31:31;;;;;;;0.47;0.38;;;30.30;30.60;;;29.03;30.45;101306.69;12227703;19;20085;-77
2022/07/04 16:35:32;;;;;;;0.35;0.35;;;30.30;30.30;;;28.83;30.70;101279.63;12232635;19;20093;-77
2022/07/04 16:39:34;;;;;;;0.50;0.50;;;30.40;30.00;;;28.85;30.47;101294.53;12228797;19;20015;-77
2022/07/04 16:43:37;;;;;;;0.60;0.50;;;30.30;29.90;;;28.79;30.30;101292.63;12228455;19;20022;-78
2022/07/04 16:47:38;;;;;;;1.73;0.50;;;30.20;30.00;;;28.71;30.09;101284.69;12233544;19;20018;-77
2022/07/04 16:51:40;;;;;;;0.50;0.47;;;30.20;30.00;;;28.74;30.34;101296.91;12224045;19;20018;-77
2022/07/04 16:55:45;;;;;;;0.50;0.50;;;30.20;30.10;;;28.61;30.48;101279.59;12232060;19;20014;-77